Station: Cummins Airport  

  Atmospheric Gas Attenuation - ITU Rec 676-11   ----------------- dB/100km -----------------
Date Time Temp RH % AH g/m3 Dew Point Wind Direction Speed kph Gust kph Barometer mB Rainfall Since 9am 24GHz 47GHz 76GHz 122GHz 134GHz 241GHz
08/05 12:00 14.8 78 9.88 11 20 30 1033.1 0 22.2 28.5 45.4 119.2 116.0 400.1
08/05 11:50 15.7 72 9.63 10.7 17 19 1033.2 0 21.7 27.8 43.9 115.1 111.3 383.7
08/05 11:40 15.5 74 9.78 10.9 19 20 1033.4 0 22.0 28.1 44.6 117.1 113.7 391.9
08/05 11:30 15.4 73 9.59 10.6 20 28 1033.5 0 21.6 27.8 43.9 115.2 111.2 383.4
08/05 11:20 15.5 70 9.25 10.1 22 24 1033.5 0 20.9 27.2 42.5 111.3 106.5 366.9
08/05 11:10 15.7 70 9.37 10.2 15 17 1033.6 0 21.1 27.4 42.8 112.3 107.8 371.6
08/05 11:00 15.5 69 9.12 9.8 22 28 1033.6 0 20.6 27.0 41.9 109.9 104.8 360.8
08/05 10:50 15.4 68 8.93 9.5 22 24 1033.6 0 20.2 26.7 41.2 108.0 102.4 352.4
08/05 10:40 15.7 66 8.83 9.4 15 19 1033.6 0 20.0 26.5 40.7 106.5 100.7 346.5
08/05 10:30 15.6 69 9.18 9.9 17 20 1033.5 0 20.7 27.1 42.1 110.4 105.4 363.1
08/05 10:20 15.3 70 9.14 9.9 20 20 1033.5 0 20.6 27.1 42.1 110.4 105.3 362.6
08/05 10:10 15.2 72 9.35 10.2 19 20 1033.4 0 21.1 27.5 43.0 112.8 108.3 372.9
08/05 10:00 15.1 72 9.29 10.1 15 20 1033.4 0 21.0 27.4 42.8 112.3 107.6 370.6
08/05 09:50 14.9 74 9.43 10.3 15 17 1033.5 0 21.3 27.7 43.5 114.1 109.8 378.2
08/05 09:40 14.7 74 9.32 10.1 19 20 1033.4 0 21.1 27.6 43.2 113.2 108.5 373.9
08/05 09:30 14.9 73 9.3 10.1 11 15 1033.4 0 21.0 27.5 43.0 112.7 108.0 372.0
08/05 09:20 14.7 73 9.19 9.9 13 13 1033.3 0 20.8 27.4 42.6 111.7 106.8 367.7
08/05 09:10 14.5 74 9.2 9.9 7 7 1033.3 0 20.8 27.4 42.8 112.1 107.2 369.1
08/05 09:00 14.3 74 9.09 9.7 6 7 1033.2 0 20.6 27.3 42.4 111.2 106.0 364.8
08/05 08:50 14.2 75 9.16 9.8 4 6 1033.1 0 20.7 27.4 42.8 112.1 107.0 368.6
08/05 08:40 14.1 76 9.22 9.9 4 6 1033.1 0 20.9 27.6 43.1 112.9 108.0 371.9
08/05 08:30 13.9 77 9.23 9.9 6 9 1033.2 0 20.9 27.7 43.2 113.3 108.4 373.4
08/05 08:20 13.6 77 9.06 9.6 7 7 1033.1 0 20.6 27.5 42.7 111.9 106.5 366.6
08/05 08:10 13.4 78 9.07 9.6 7 9 1033 0 20.6 27.5 42.8 112.2 106.9 368.0
08/05 08:00 13.1 78 8.9 9.4 6 7 1032.9 0 20.2 27.3 42.3 110.8 105.0 361.3
08/05 07:50 12.9 80 9.02 9.5 6 7 1032.8 0 20.5 27.6 42.9 112.4 106.9 367.9
08/05 07:40 12.7 80 8.91 9.3 7 7 1032.7 0 20.3 27.5 42.5 111.4 105.7 363.5
08/05 07:30 12.5 82 9.02 9.5 9 9 1032.6 0 20.5 27.7 43.1 112.9 107.4 369.7
08/05 07:20 12.3 83 9.01 9.5 7 9 1032.6 0 20.5 27.8 43.2 113.1 107.6 370.2
08/05 07:10 12.6 84 9.29 10 9 9 1032.5 0 21.1 28.1 44.2 115.8 111.0 382.3
08/05 07:00 12.5 79 8.69 9 7 7 1032.4 0 19.8 27.2 41.7 109.2 102.9 353.8
08/05 06:50 12.6 80 8.85 9.2 6 6 1032.3 0 20.2 27.4 42.3 110.9 104.9 361.0
08/05 06:40 12.7 78 8.68 9 6 7 1032.3 0 19.8 27.1 41.6 108.8 102.5 352.4
08/05 06:30 12.6 78 8.63 8.9 6 7 1032.3 0 19.7 27.0 41.4 108.4 101.9 350.5
08/05 06:20 12.6 80 8.85 9.2 4 6 1032.3 0 20.2 27.4 42.3 110.9 104.9 361.0
08/05 06:10 12.6 79 8.74 9.1 7 7 1032.2 0 19.9 27.2 41.8 109.6 103.4 355.7
08/05 06:00 12.5 81 8.91 9.3 7 9 1032.2 0 20.3 27.5 42.6 111.7 105.9 364.3
08/05 05:50 12.5 79 8.69 9 9 11 1032.2 0 19.8 27.2 41.7 109.2 102.9 353.7
08/05 05:40 12.6 79 8.74 9.1 9 11 1032.2 0 19.9 27.2 41.8 109.6 103.4 355.7
08/05 05:30 12.5 80 8.8 9.1 6 7 1032.3 0 20.1 27.3 42.2 110.4 104.4 359.0
08/05 05:20 12.5 80 8.8 9.1 6 7 1032.1 0 20.1 27.3 42.1 110.4 104.4 359.0
08/05 05:10 12.4 79 8.63 8.9 6 7 1032.1 0 19.7 27.1 41.5 108.7 102.2 351.3
08/05 05:00 12.3 81 8.8 9.1 0 0 1032.2 0 20.1 27.4 42.3 110.7 104.6 359.9
08/05 04:50 12.4 80 8.74 9.1 0 0 1032.1 0 19.9 27.3 41.9 109.9 103.7 356.6
08/05 04:40 12.4 78 8.52 8.7 0 0 1032.1 0 19.5 26.9 41.0 107.5 100.7 346.1
08/05 04:30 12.4 79 8.63 8.9 0 2 1032.1 0 19.7 27.1 41.5 108.7 102.2 351.3
08/05 04:20 12.4 78 8.52 8.7 4 6 1032.2 0 19.5 26.9 41.0 107.5 100.7 346.1
08/05 04:10 12.3 80 8.69 9 7 7 1032.1 0 19.8 27.2 41.8 109.5 103.1 354.6
08/05 04:00 12.3 80 8.69 9 9 9 1032.2 0 19.8 27.2 41.8 109.5 103.1 354.7
08/05 03:50 12.4 81 8.85 9.2 9 9 1032.1 0 20.2 27.4 42.4 111.1 105.2 361.9
08/05 03:40 12.3 80 8.69 9 7 9 1032.1 0 19.8 27.2 41.8 109.5 103.1 354.6
08/05 03:30 12.3 82 8.9 9.3 9 11 1032.2 0 20.3 27.6 42.7 111.8 106.0 364.8
08/05 03:20 12.3 80 8.69 9 9 11 1032.2 0 19.8 27.2 41.8 109.5 103.1 354.7
08/05 03:10 12.4 80 8.74 9.1 6 6 1032.1 0 19.9 27.3 41.9 109.9 103.7 356.6
08/05 03:00 12.6 80 8.85 9.2 0 0 1032.1 0 20.2 27.4 42.3 110.8 104.9 360.9
08/05 02:50 12.6 75 8.3 8.3 0 0 1032.2 0 19.0 26.5 40.0 104.8 97.5 334.8
08/05 02:40 12.5 76 8.36 8.4 0 0 1032.1 0 19.1 26.6 40.3 105.6 98.4 338.0
08/05 02:30 12.5 77 8.47 8.6 6 6 1032.2 0 19.4 26.8 40.8 106.8 99.9 343.3
08/05 02:20 12.6 76 8.41 8.5 6 6 1032.1 0 19.2 26.7 40.5 106.0 98.9 340.0
08/05 02:10 12.5 78 8.58 8.8 6 7 1032.2 0 19.6 27.0 41.2 108.0 101.4 348.5
08/05 02:00 12.5 77 8.47 8.6 7 9 1032.2 0 19.4 26.8 40.8 106.8 99.9 343.3
08/05 01:50 12.6 76 8.41 8.5 7 9 1032.2 0 19.2 26.7 40.5 106.0 98.9 340.0
08/05 01:40 12.6 76 8.41 8.5 7 9 1032.3 0 19.2 26.7 40.5 106.0 98.9 340.0
08/05 01:30 12.5 77 8.47 8.6 7 11 1032.3 0 19.4 26.8 40.8 106.8 99.9 343.3
08/05 01:20 12.4 78 8.52 8.7 9 9 1032.4 0 19.5 26.9 41.1 107.5 100.7 346.1
08/05 01:10 12.4 79 8.63 8.9 7 9 1032.4 0 19.7 27.1 41.5 108.7 102.2 351.4
08/05 01:00 12.4 79 8.63 8.9 7 11 1032.5 0 19.7 27.1 41.5 108.7 102.2 351.4
08/05 00:50 12.2 80 8.63 8.9 9 11 1032.4 0 19.7 27.2 41.6 109.0 102.5 352.3
08/05 00:40 12.2 79 8.53 8.7 6 7 1032.4 0 19.5 27.0 41.2 107.9 101.1 347.5
08/05 00:30 12.3 82 8.9 9.3 7 9 1032.4 0 20.3 27.6 42.7 111.9 106.0 364.8
08/05 00:20 12.3 81 8.8 9.1 9 9 1032.3 0 20.1 27.4 42.3 110.7 104.7 360.0
08/05 00:10 12.5 79 8.69 9 7 7 1032.3 0 19.8 27.2 41.7 109.2 102.9 353.8
08/05 00:00 12.4 79 8.63 8.9 0 0 1032.3 0 19.7 27.1 41.5 108.7 102.2 351.4
07/05 23:50 12.3 77 8.36 8.4 0 0 1032.5 0 19.1 26.7 40.4 105.9 98.7 339.0
07/05 23:40 12.4 77 8.41 8.5 0 0 1032.4 0 19.2 26.7 40.6 106.3 99.2 340.9
07/05 23:30 12.3 76 8.25 8.2 0 0 1032.5 0 18.9 26.5 40.0 104.7 97.2 333.8
07/05 23:20 12.4 76 8.3 8.3 0 4 1032.5 0 19.0 26.5 40.1 105.1 97.7 335.7
07/05 23:10 12.5 76 8.36 8.4 6 7 1032.5 0 19.1 26.6 40.3 105.6 98.4 338.1
07/05 23:00 12.7 75 8.35 8.4 7 7 1032.6 0 19.1 26.5 40.2 105.2 98.0 336.8
07/05 22:50 12.5 75 8.25 8.2 7 7 1032.7 0 18.9 26.4 39.9 104.4 96.9 333.0
07/05 22:40 12.5 75 8.25 8.2 9 9 1032.8 0 18.9 26.4 39.9 104.4 97.0 333.0
07/05 22:30 12.5 76 8.36 8.4 7 9 1032.9 0 19.1 26.6 40.4 105.6 98.4 338.2
07/05 22:20 12.5 75 8.25 8.2 7 7 1032.9 0 18.9 26.4 39.9 104.4 97.0 333.1
07/05 22:10 12.4 76 8.3 8.3 6 7 1033 0 19.0 26.6 40.2 105.1 97.8 335.9
07/05 22:00 12.5 75 8.25 8.2 6 7 1032.9 0 18.9 26.4 39.9 104.4 97.0 333.1
07/05 21:50 12.6 75 8.3 8.3 7 7 1032.9 0 19.0 26.5 40.1 104.9 97.5 335.0
07/05 21:40 12.6 75 8.3 8.3 4 6 1032.9 0 19.0 26.5 40.1 104.9 97.5 335.0
07/05 21:30 12.6 74 8.19 8.1 7 9 1032.9 0 18.8 26.3 39.6 103.7 96.0 329.8
07/05 21:20 12.5 76 8.36 8.4 7 9 1033 0 19.1 26.6 40.4 105.7 98.5 338.3
07/05 21:10 12.3 78 8.47 8.6 6 7 1033.1 0 19.4 26.9 40.9 107.1 100.2 344.4
07/05 21:00 12.4 78 8.52 8.7 9 11 1033.1 0 19.5 26.9 41.1 107.6 100.8 346.3
07/05 20:50 12.4 77 8.41 8.5 9 9 1033 0 19.2 26.7 40.6 106.3 99.3 341.1
07/05 20:40 12.5 77 8.47 8.6 9 11 1032.9 0 19.4 26.8 40.8 106.9 99.9 343.5
07/05 20:30 12.5 77 8.47 8.6 9 9 1033 0 19.4 26.8 40.8 106.9 99.9 343.5
07/05 20:20 12.6 76 8.41 8.5 9 9 1033 0 19.2 26.7 40.5 106.1 99.0 340.2
07/05 20:10 12.8 75 8.4 8.5 7 9 1033 0 19.2 26.6 40.4 105.7 98.6 338.9
07/05 20:00 12.9 74 8.34 8.4 4 7 1032.9 0 19.1 26.5 40.1 104.9 97.7 335.6
07/05 19:50 12.9 74 8.34 8.4 6 7 1033 0 19.1 26.5 40.1 104.9 97.7 335.6
07/05 19:40 13 73 8.28 8.3 7 7 1033 0 18.9 26.4 39.8 104.1 96.8 332.4
07/05 19:30 13.1 72 8.22 8.2 7 11 1032.9 0 18.8 26.2 39.5 103.3 95.8 329.1

Last Refresh: 08-May-2026 12:07:20

Bureau of Meteorology